sensor_id;sensor_type;location;lat;lon;timestamp;P1;durP1;ratioP1;P2;durP2;ratioP2
10851;SDS011;5479;52.046;6.314;2023-07-13T00:00:31;8.53;;;3.17;;
10851;SDS011;5479;52.046;6.314;2023-07-13T00:03:00;8.37;;;3.23;;
10851;SDS011;5479;52.046;6.314;2023-07-13T00:05:29;8.73;;;3.73;;
10851;SDS011;5479;52.046;6.314;2023-07-13T00:07:57;9.30;;;3.90;;
10851;SDS011;5479;52.046;6.314;2023-07-13T00:10:25;9.93;;;3.73;;
10851;SDS011;5479;52.046;6.314;2023-07-13T00:12:53;9.77;;;3.63;;
10851;SDS011;5479;52.046;6.314;2023-07-13T00:15:24;7.40;;;3.30;;
10851;SDS011;5479;52.046;6.314;2023-07-13T00:17:54;9.73;;;3.17;;
10851;SDS011;5479;52.046;6.314;2023-07-13T00:20:24;9.87;;;3.87;;
10851;SDS011;5479;52.046;6.314;2023-07-13T00:22:53;7.33;;;3.00;;
10851;SDS011;5479;52.046;6.314;2023-07-13T00:25:21;9.33;;;3.67;;
10851;SDS011;5479;52.046;6.314;2023-07-13T00:27:50;7.63;;;3.20;;
10851;SDS011;5479;52.046;6.314;2023-07-13T00:30:19;7.43;;;3.20;;
10851;SDS011;5479;52.046;6.314;2023-07-13T00:32:47;10.80;;;4.10;;
10851;SDS011;5479;52.046;6.314;2023-07-13T00:35:15;9.33;;;3.50;;
10851;SDS011;5479;52.046;6.314;2023-07-13T00:37:45;6.80;;;3.30;;
10851;SDS011;5479;52.046;6.314;2023-07-13T00:40:14;7.13;;;3.30;;
10851;SDS011;5479;52.046;6.314;2023-07-13T00:42:43;9.40;;;3.37;;
10851;SDS011;5479;52.046;6.314;2023-07-13T00:48:18;6.57;;;3.53;;
10851;SDS011;5479;52.046;6.314;2023-07-13T00:50:49;8.70;;;3.50;;
10851;SDS011;5479;52.046;6.314;2023-07-13T00:53:21;10.33;;;3.60;;
10851;SDS011;5479;52.046;6.314;2023-07-13T00:55:50;10.50;;;3.47;;
10851;SDS011;5479;52.046;6.314;2023-07-13T00:58:21;9.77;;;3.43;;
10851;SDS011;5479;52.046;6.314;2023-07-13T01:00:49;9.37;;;3.50;;
10851;SDS011;5479;52.046;6.314;2023-07-13T01:03:19;8.80;;;3.30;;
10851;SDS011;5479;52.046;6.314;2023-07-13T01:05:47;11.70;;;3.40;;
10851;SDS011;5479;52.046;6.314;2023-07-13T01:08:17;6.33;;;3.40;;
10851;SDS011;5479;52.046;6.314;2023-07-13T01:10:52;8.37;;;3.03;;
10851;SDS011;5479;52.046;6.314;2023-07-13T01:13:20;8.37;;;3.07;;
10851;SDS011;5479;52.046;6.314;2023-07-13T01:15:50;9.23;;;3.03;;
10851;SDS011;5479;52.046;6.314;2023-07-13T01:18:20;8.40;;;3.00;;
10851;SDS011;5479;52.046;6.314;2023-07-13T01:20:53;8.57;;;3.00;;
10851;SDS011;5479;52.046;6.314;2023-07-13T01:23:22;7.27;;;2.80;;
10851;SDS011;5479;52.046;6.314;2023-07-13T01:25:51;6.93;;;3.50;;
10851;SDS011;5479;52.046;6.314;2023-07-13T01:28:19;7.57;;;3.03;;
10851;SDS011;5479;52.046;6.314;2023-07-13T01:30:48;7.47;;;3.00;;
10851;SDS011;5479;52.046;6.314;2023-07-13T01:33:16;8.57;;;3.10;;
10851;SDS011;5479;52.046;6.314;2023-07-13T01:35:45;7.87;;;3.10;;
10851;SDS011;5479;52.046;6.314;2023-07-13T01:38:16;7.77;;;2.93;;
10851;SDS011;5479;52.046;6.314;2023-07-13T01:40:46;6.77;;;2.60;;
10851;SDS011;5479;52.046;6.314;2023-07-13T01:43:14;6.77;;;2.50;;
10851;SDS011;5479;52.046;6.314;2023-07-13T01:45:42;6.33;;;2.97;;
10851;SDS011;5479;52.046;6.314;2023-07-13T01:48:11;6.90;;;3.20;;
10851;SDS011;5479;52.046;6.314;2023-07-13T01:50:39;8.13;;;2.90;;
10851;SDS011;5479;52.046;6.314;2023-07-13T01:53:08;6.77;;;3.03;;
10851;SDS011;5479;52.046;6.314;2023-07-13T01:55:38;6.50;;;2.70;;
10851;SDS011;5479;52.046;6.314;2023-07-13T01:58:06;6.33;;;2.70;;
10851;SDS011;5479;52.046;6.314;2023-07-13T02:00:34;7.53;;;3.30;;
10851;SDS011;5479;52.046;6.314;2023-07-13T02:03:02;8.87;;;3.47;;
10851;SDS011;5479;52.046;6.314;2023-07-13T02:05:31;8.40;;;2.97;;
10851;SDS011;5479;52.046;6.314;2023-07-13T02:07:59;9.13;;;2.93;;
10851;SDS011;5479;52.046;6.314;2023-07-13T02:10:27;6.93;;;3.10;;
10851;SDS011;5479;52.046;6.314;2023-07-13T02:12:56;6.80;;;3.63;;
10851;SDS011;5479;52.046;6.314;2023-07-13T02:15:24;7.90;;;3.30;;
10851;SDS011;5479;52.046;6.314;2023-07-13T02:17:54;8.33;;;3.20;;
10851;SDS011;5479;52.046;6.314;2023-07-13T02:20:23;9.43;;;3.47;;
10851;SDS011;5479;52.046;6.314;2023-07-13T02:22:51;7.63;;;2.97;;
10851;SDS011;5479;52.046;6.314;2023-07-13T02:25:19;8.73;;;3.73;;
10851;SDS011;5479;52.046;6.314;2023-07-13T02:27:47;11.27;;;3.57;;
10851;SDS011;5479;52.046;6.314;2023-07-13T02:30:16;8.43;;;3.70;;
10851;SDS011;5479;52.046;6.314;2023-07-13T02:32:45;8.73;;;3.27;;
10851;SDS011;5479;52.046;6.314;2023-07-13T02:35:13;7.47;;;3.60;;
10851;SDS011;5479;52.046;6.314;2023-07-13T02:37:41;11.03;;;4.00;;
10851;SDS011;5479;52.046;6.314;2023-07-13T02:40:09;7.13;;;3.60;;
10851;SDS011;5479;52.046;6.314;2023-07-13T02:42:37;8.47;;;3.60;;
10851;SDS011;5479;52.046;6.314;2023-07-13T02:45:06;9.80;;;4.03;;
10851;SDS011;5479;52.046;6.314;2023-07-13T02:47:37;9.27;;;4.30;;
10851;SDS011;5479;52.046;6.314;2023-07-13T02:50:05;9.20;;;4.23;;
10851;SDS011;5479;52.046;6.314;2023-07-13T02:52:34;10.87;;;3.83;;
10851;SDS011;5479;52.046;6.314;2023-07-13T02:55:03;8.70;;;3.70;;
10851;SDS011;5479;52.046;6.314;2023-07-13T02:57:31;8.80;;;3.53;;
10851;SDS011;5479;52.046;6.314;2023-07-13T03:00:00;12.37;;;4.00;;
10851;SDS011;5479;52.046;6.314;2023-07-13T03:02:31;9.33;;;4.40;;
10851;SDS011;5479;52.046;6.314;2023-07-13T03:05:01;9.37;;;4.00;;
10851;SDS011;5479;52.046;6.314;2023-07-13T03:07:30;10.37;;;4.03;;
10851;SDS011;5479;52.046;6.314;2023-07-13T03:09:58;8.60;;;4.17;;
10851;SDS011;5479;52.046;6.314;2023-07-13T03:12:26;11.20;;;4.90;;
10851;SDS011;5479;52.046;6.314;2023-07-13T03:14:54;8.50;;;3.90;;
10851;SDS011;5479;52.046;6.314;2023-07-13T03:17:22;9.10;;;4.10;;
10851;SDS011;5479;52.046;6.314;2023-07-13T03:19:51;10.83;;;4.30;;
10851;SDS011;5479;52.046;6.314;2023-07-13T03:22:20;10.10;;;4.03;;
10851;SDS011;5479;52.046;6.314;2023-07-13T03:24:49;8.30;;;4.20;;
10851;SDS011;5479;52.046;6.314;2023-07-13T03:27:17;9.40;;;4.33;;
10851;SDS011;5479;52.046;6.314;2023-07-13T03:29:45;10.07;;;4.10;;
10851;SDS011;5479;52.046;6.314;2023-07-13T03:32:13;8.67;;;4.57;;
10851;SDS011;5479;52.046;6.314;2023-07-13T03:34:41;13.17;;;4.77;;
10851;SDS011;5479;52.046;6.314;2023-07-13T03:37:09;8.07;;;4.70;;
10851;SDS011;5479;52.046;6.314;2023-07-13T03:39:39;9.33;;;4.50;;
10851;SDS011;5479;52.046;6.314;2023-07-13T03:42:07;12.13;;;4.30;;
10851;SDS011;5479;52.046;6.314;2023-07-13T03:44:35;9.90;;;4.57;;
10851;SDS011;5479;52.046;6.314;2023-07-13T03:47:03;9.30;;;4.30;;
10851;SDS011;5479;52.046;6.314;2023-07-13T03:49:35;12.37;;;4.47;;
10851;SDS011;5479;52.046;6.314;2023-07-13T03:52:03;9.70;;;4.50;;
10851;SDS011;5479;52.046;6.314;2023-07-13T03:54:33;9.50;;;4.87;;
10851;SDS011;5479;52.046;6.314;2023-07-13T03:57:02;9.97;;;4.70;;
10851;SDS011;5479;52.046;6.314;2023-07-13T03:59:31;9.70;;;4.33;;
10851;SDS011;5479;52.046;6.314;2023-07-13T04:02:00;12.57;;;5.53;;
10851;SDS011;5479;52.046;6.314;2023-07-13T04:04:28;11.13;;;4.87;;
10851;SDS011;5479;52.046;6.314;2023-07-13T04:06:57;12.13;;;4.60;;
10851;SDS011;5479;52.046;6.314;2023-07-13T04:09:25;12.37;;;5.30;;
10851;SDS011;5479;52.046;6.314;2023-07-13T04:11:53;9.73;;;4.77;;
10851;SDS011;5479;52.046;6.314;2023-07-13T04:14:22;12.73;;;4.83;;
10851;SDS011;5479;52.046;6.314;2023-07-13T04:16:51;11.43;;;4.80;;
10851;SDS011;5479;52.046;6.314;2023-07-13T04:19:20;9.27;;;4.80;;
10851;SDS011;5479;52.046;6.314;2023-07-13T04:21:49;9.40;;;5.20;;
10851;SDS011;5479;52.046;6.314;2023-07-13T04:24:17;10.37;;;4.83;;
10851;SDS011;5479;52.046;6.314;2023-07-13T04:26:45;7.70;;;4.27;;
10851;SDS011;5479;52.046;6.314;2023-07-13T04:29:13;11.30;;;5.47;;
10851;SDS011;5479;52.046;6.314;2023-07-13T04:31:43;10.37;;;5.00;;
10851;SDS011;5479;52.046;6.314;2023-07-13T04:34:11;9.97;;;5.00;;
10851;SDS011;5479;52.046;6.314;2023-07-13T04:36:39;11.67;;;5.37;;
10851;SDS011;5479;52.046;6.314;2023-07-13T04:39:07;10.13;;;5.10;;
10851;SDS011;5479;52.046;6.314;2023-07-13T04:41:35;10.67;;;5.23;;
10851;SDS011;5479;52.046;6.314;2023-07-13T04:44:03;12.30;;;5.23;;
10851;SDS011;5479;52.046;6.314;2023-07-13T04:46:31;11.40;;;5.47;;
10851;SDS011;5479;52.046;6.314;2023-07-13T04:49:03;10.30;;;5.23;;
10851;SDS011;5479;52.046;6.314;2023-07-13T04:51:31;10.03;;;5.10;;
10851;SDS011;5479;52.046;6.314;2023-07-13T04:53:59;12.77;;;5.30;;
10851;SDS011;5479;52.046;6.314;2023-07-13T04:56:27;16.23;;;5.97;;
10851;SDS011;5479;52.046;6.314;2023-07-13T04:58:56;14.87;;;5.70;;
10851;SDS011;5479;52.046;6.314;2023-07-13T05:01:24;15.37;;;5.73;;
10851;SDS011;5479;52.046;6.314;2023-07-13T05:03:52;13.60;;;5.67;;
10851;SDS011;5479;52.046;6.314;2023-07-13T05:06:24;13.93;;;6.07;;
10851;SDS011;5479;52.046;6.314;2023-07-13T05:08:52;10.23;;;5.93;;
10851;SDS011;5479;52.046;6.314;2023-07-13T05:11:20;12.87;;;6.43;;
10851;SDS011;5479;52.046;6.314;2023-07-13T05:13:48;12.47;;;6.13;;
10851;SDS011;5479;52.046;6.314;2023-07-13T05:16:16;10.63;;;5.73;;
10851;SDS011;5479;52.046;6.314;2023-07-13T05:18:44;13.70;;;6.60;;
10851;SDS011;5479;52.046;6.314;2023-07-13T05:21:12;11.57;;;5.50;;
10851;SDS011;5479;52.046;6.314;2023-07-13T05:23:41;10.93;;;5.53;;
10851;SDS011;5479;52.046;6.314;2023-07-13T05:26:10;9.57;;;5.67;;
10851;SDS011;5479;52.046;6.314;2023-07-13T05:28:39;11.23;;;5.90;;
10851;SDS011;5479;52.046;6.314;2023-07-13T05:31:07;10.53;;;5.63;;
10851;SDS011;5479;52.046;6.314;2023-07-13T05:33:36;11.27;;;6.37;;
10851;SDS011;5479;52.046;6.314;2023-07-13T05:36:04;12.23;;;6.50;;
10851;SDS011;5479;52.046;6.314;2023-07-13T05:38:33;14.93;;;5.70;;
10851;SDS011;5479;52.046;6.314;2023-07-13T05:41:04;13.47;;;6.80;;
10851;SDS011;5479;52.046;6.314;2023-07-13T05:43:32;14.10;;;7.33;;
10851;SDS011;5479;52.046;6.314;2023-07-13T05:46:00;11.93;;;6.07;;
10851;SDS011;5479;52.046;6.314;2023-07-13T05:48:28;12.40;;;6.23;;
10851;SDS011;5479;52.046;6.314;2023-07-13T05:50:56;11.57;;;5.40;;
10851;SDS011;5479;52.046;6.314;2023-07-13T05:53:24;10.63;;;5.47;;
10851;SDS011;5479;52.046;6.314;2023-07-13T05:55:53;12.30;;;5.97;;
10851;SDS011;5479;52.046;6.314;2023-07-13T05:58:23;11.70;;;6.70;;
10851;SDS011;5479;52.046;6.314;2023-07-13T06:00:58;14.23;;;7.10;;
10851;SDS011;5479;52.046;6.314;2023-07-13T06:03:28;13.20;;;7.27;;
10851;SDS011;5479;52.046;6.314;2023-07-13T06:05:56;12.70;;;7.23;;
10851;SDS011;5479;52.046;6.314;2023-07-13T06:08:24;16.65;;;7.78;;
10851;SDS011;5479;52.046;6.314;2023-07-13T06:10:52;12.87;;;7.57;;
10851;SDS011;5479;52.046;6.314;2023-07-13T06:13:20;17.67;;;7.67;;
10851;SDS011;5479;52.046;6.314;2023-07-13T06:15:52;13.67;;;7.37;;
10851;SDS011;5479;52.046;6.314;2023-07-13T06:18:20;16.75;;;8.60;;
10851;SDS011;5479;52.046;6.314;2023-07-13T06:20:48;17.50;;;9.70;;
10851;SDS011;5479;52.046;6.314;2023-07-13T06:23:16;19.98;;;9.65;;
10851;SDS011;5479;52.046;6.314;2023-07-13T06:25:44;22.60;;;10.65;;
10851;SDS011;5479;52.046;6.314;2023-07-13T06:28:12;20.70;;;10.70;;
10851;SDS011;5479;52.046;6.314;2023-07-13T06:30:40;20.50;;;10.77;;
10851;SDS011;5479;52.046;6.314;2023-07-13T06:33:10;19.75;;;10.95;;
10851;SDS011;5479;52.046;6.314;2023-07-13T06:35:38;17.27;;;11.20;;
10851;SDS011;5479;52.046;6.314;2023-07-13T06:38:06;17.73;;;10.70;;
10851;SDS011;5479;52.046;6.314;2023-07-13T06:40:34;22.30;;;10.90;;
10851;SDS011;5479;52.046;6.314;2023-07-13T06:43:03;17.60;;;10.35;;
10851;SDS011;5479;52.046;6.314;2023-07-13T06:45:32;14.85;;;9.70;;
10851;SDS011;5479;52.046;6.314;2023-07-13T06:48:03;16.23;;;9.73;;
10851;SDS011;5479;52.046;6.314;2023-07-13T06:50:33;16.35;;;10.07;;
10851;SDS011;5479;52.046;6.314;2023-07-13T06:53:01;17.92;;;9.75;;
10851;SDS011;5479;52.046;6.314;2023-07-13T06:55:29;18.85;;;10.18;;
10851;SDS011;5479;52.046;6.314;2023-07-13T06:57:57;16.52;;;9.05;;
10851;SDS011;5479;52.046;6.314;2023-07-13T07:00:25;15.90;;;9.27;;
10851;SDS011;5479;52.046;6.314;2023-07-13T07:02:53;14.70;;;9.02;;
10851;SDS011;5479;52.046;6.314;2023-07-13T07:05:21;15.70;;;8.73;;
10851;SDS011;5479;52.046;6.314;2023-07-13T07:07:54;16.73;;;9.52;;
10851;SDS011;5479;52.046;6.314;2023-07-13T07:10:23;16.92;;;9.07;;
10851;SDS011;5479;52.046;6.314;2023-07-13T07:12:51;16.75;;;9.80;;
10851;SDS011;5479;52.046;6.314;2023-07-13T07:15:19;18.80;;;9.85;;
10851;SDS011;5479;52.046;6.314;2023-07-13T07:17:47;18.85;;;10.20;;
10851;SDS011;5479;52.046;6.314;2023-07-13T07:20:15;19.30;;;10.20;;
10851;SDS011;5479;52.046;6.314;2023-07-13T07:22:43;20.67;;;10.88;;
10851;SDS011;5479;52.046;6.314;2023-07-13T07:25:13;17.45;;;10.55;;
10851;SDS011;5479;52.046;6.314;2023-07-13T07:27:42;18.85;;;10.45;;
10851;SDS011;5479;52.046;6.314;2023-07-13T07:30:11;17.38;;;10.15;;
10851;SDS011;5479;52.046;6.314;2023-07-13T07:32:40;15.43;;;9.07;;
10851;SDS011;5479;52.046;6.314;2023-07-13T07:35:09;15.88;;;10.18;;
10851;SDS011;5479;52.046;6.314;2023-07-13T07:37:42;13.45;;;9.95;;
10851;SDS011;5479;52.046;6.314;2023-07-13T07:40:10;20.92;;;10.93;;
10851;SDS011;5479;52.046;6.314;2023-07-13T07:42:41;16.88;;;11.32;;
10851;SDS011;5479;52.046;6.314;2023-07-13T07:45:09;18.63;;;10.82;;
10851;SDS011;5479;52.046;6.314;2023-07-13T07:47:38;19.80;;;10.88;;
10851;SDS011;5479;52.046;6.314;2023-07-13T07:50:07;21.83;;;12.68;;
10851;SDS011;5479;52.046;6.314;2023-07-13T07:52:35;19.52;;;11.52;;
10851;SDS011;5479;52.046;6.314;2023-07-13T07:55:04;23.85;;;13.73;;
10851;SDS011;5479;52.046;6.314;2023-07-13T07:57:33;16.75;;;11.15;;
10851;SDS011;5479;52.046;6.314;2023-07-13T08:00:05;18.80;;;11.88;;
10851;SDS011;5479;52.046;6.314;2023-07-13T08:02:33;18.25;;;11.75;;
10851;SDS011;5479;52.046;6.314;2023-07-13T08:05:02;18.25;;;12.05;;
10851;SDS011;5479;52.046;6.314;2023-07-13T08:07:31;21.10;;;12.35;;
10851;SDS011;5479;52.046;6.314;2023-07-13T08:09:59;18.58;;;12.02;;
10851;SDS011;5479;52.046;6.314;2023-07-13T08:12:27;15.68;;;11.55;;
10851;SDS011;5479;52.046;6.314;2023-07-13T08:14:55;20.90;;;12.30;;
10851;SDS011;5479;52.046;6.314;2023-07-13T08:17:26;17.23;;;12.30;;
10851;SDS011;5479;52.046;6.314;2023-07-13T08:19:55;15.73;;;11.35;;
10851;SDS011;5479;52.046;6.314;2023-07-13T08:22:23;20.63;;;12.00;;
10851;SDS011;5479;52.046;6.314;2023-07-13T08:24:51;16.95;;;11.27;;
10851;SDS011;5479;52.046;6.314;2023-07-13T08:27:22;16.95;;;11.90;;
10851;SDS011;5479;52.046;6.314;2023-07-13T08:29:51;19.45;;;11.48;;
10851;SDS011;5479;52.046;6.314;2023-07-13T08:32:20;20.30;;;11.55;;
10851;SDS011;5479;52.046;6.314;2023-07-13T08:34:50;19.73;;;12.18;;
10851;SDS011;5479;52.046;6.314;2023-07-13T08:37:19;18.27;;;10.60;;
10851;SDS011;5479;52.046;6.314;2023-07-13T08:39:47;21.25;;;11.70;;
10851;SDS011;5479;52.046;6.314;2023-07-13T08:42:18;25.13;;;12.13;;
10851;SDS011;5479;52.046;6.314;2023-07-13T08:45:00;20.52;;;11.50;;
10851;SDS011;5479;52.046;6.314;2023-07-13T08:47:39;21.80;;;11.25;;
10851;SDS011;5479;52.046;6.314;2023-07-13T08:50:13;17.73;;;10.05;;
10851;SDS011;5479;52.046;6.314;2023-07-13T08:52:44;16.83;;;10.63;;
10851;SDS011;5479;52.046;6.314;2023-07-13T08:55:15;15.35;;;10.07;;
10851;SDS011;5479;52.046;6.314;2023-07-13T08:57:48;14.70;;;10.20;;
10851;SDS011;5479;52.046;6.314;2023-07-13T09:00:24;16.67;;;9.52;;
10851;SDS011;5479;52.046;6.314;2023-07-13T09:02:59;14.13;;;9.57;;
10851;SDS011;5479;52.046;6.314;2023-07-13T09:05:33;17.13;;;9.80;;
10851;SDS011;5479;52.046;6.314;2023-07-13T09:08:09;14.88;;;9.43;;
10851;SDS011;5479;52.046;6.314;2023-07-13T09:10:59;15.40;;;9.98;;
10851;SDS011;5479;52.046;6.314;2023-07-13T09:13:37;18.65;;;12.45;;
10851;SDS011;5479;52.046;6.314;2023-07-13T09:16:11;14.85;;;9.95;;
10851;SDS011;5479;52.046;6.314;2023-07-13T09:18:41;14.60;;;10.20;;
10851;SDS011;5479;52.046;6.314;2023-07-13T09:21:13;16.23;;;10.80;;
10851;SDS011;5479;52.046;6.314;2023-07-13T09:23:44;17.88;;;10.43;;
10851;SDS011;5479;52.046;6.314;2023-07-13T09:26:13;15.27;;;9.88;;
10851;SDS011;5479;52.046;6.314;2023-07-13T09:28:46;15.45;;;10.57;;
10851;SDS011;5479;52.046;6.314;2023-07-13T09:31:19;20.70;;;11.43;;
10851;SDS011;5479;52.046;6.314;2023-07-13T09:33:54;16.10;;;10.70;;
10851;SDS011;5479;52.046;6.314;2023-07-13T09:36:26;15.95;;;10.40;;
10851;SDS011;5479;52.046;6.314;2023-07-13T09:38:58;21.83;;;12.57;;
10851;SDS011;5479;52.046;6.314;2023-07-13T09:41:34;22.60;;;13.68;;
10851;SDS011;5479;52.046;6.314;2023-07-13T09:44:09;22.27;;;14.30;;
10851;SDS011;5479;52.046;6.314;2023-07-13T09:46:39;20.08;;;14.63;;
10851;SDS011;5479;52.046;6.314;2023-07-13T09:49:12;21.52;;;14.02;;
10851;SDS011;5479;52.046;6.314;2023-07-13T09:51:43;22.08;;;14.00;;
10851;SDS011;5479;52.046;6.314;2023-07-13T09:54:18;21.08;;;13.85;;
10851;SDS011;5479;52.046;6.314;2023-07-13T09:56:47;19.83;;;13.85;;
10851;SDS011;5479;52.046;6.314;2023-07-13T09:59:21;16.55;;;11.35;;
10851;SDS011;5479;52.046;6.314;2023-07-13T10:01:51;16.75;;;11.05;;
10851;SDS011;5479;52.046;6.314;2023-07-13T10:04:19;15.38;;;10.70;;
10851;SDS011;5479;52.046;6.314;2023-07-13T10:06:51;14.93;;;9.95;;
10851;SDS011;5479;52.046;6.314;2023-07-13T10:09:51;16.38;;;10.60;;
10851;SDS011;5479;52.046;6.314;2023-07-13T10:12:20;14.85;;;9.75;;
10851;SDS011;5479;52.046;6.314;2023-07-13T10:14:50;18.23;;;9.98;;
10851;SDS011;5479;52.046;6.314;2023-07-13T10:17:29;15.27;;;9.85;;
10851;SDS011;5479;52.046;6.314;2023-07-13T10:20:00;18.13;;;12.88;;
10851;SDS011;5479;52.046;6.314;2023-07-13T10:22:33;19.40;;;14.82;;
10851;SDS011;5479;52.046;6.314;2023-07-13T10:25:12;17.17;;;13.27;;
10851;SDS011;5479;52.046;6.314;2023-07-13T10:27:43;19.83;;;14.77;;
10851;SDS011;5479;52.046;6.314;2023-07-13T10:30:13;19.97;;;15.77;;
10851;SDS011;5479;52.046;6.314;2023-07-13T10:32:46;21.00;;;15.67;;
10851;SDS011;5479;52.046;6.314;2023-07-13T10:35:15;16.17;;;13.02;;
10851;SDS011;5479;52.046;6.314;2023-07-13T10:37:47;13.63;;;10.10;;
10851;SDS011;5479;52.046;6.314;2023-07-13T10:40:22;11.80;;;8.73;;
10851;SDS011;5479;52.046;6.314;2023-07-13T10:42:56;9.88;;;7.40;;
10851;SDS011;5479;52.046;6.314;2023-07-13T10:45:28;9.68;;;6.30;;
10851;SDS011;5479;52.046;6.314;2023-07-13T10:48:01;8.77;;;5.60;;
10851;SDS011;5479;52.046;6.314;2023-07-13T10:50:31;8.15;;;5.60;;
10851;SDS011;5479;52.046;6.314;2023-07-13T10:53:03;10.25;;;7.50;;
10851;SDS011;5479;52.046;6.314;2023-07-13T10:55:54;8.55;;;7.05;;
10851;SDS011;5479;52.046;6.314;2023-07-13T10:58:31;10.57;;;7.47;;
10851;SDS011;5479;52.046;6.314;2023-07-13T11:01:03;11.13;;;7.65;;
10851;SDS011;5479;52.046;6.314;2023-07-13T11:03:36;10.80;;;8.60;;
10851;SDS011;5479;52.046;6.314;2023-07-13T11:06:15;9.95;;;7.18;;
10851;SDS011;5479;52.046;6.314;2023-07-13T11:08:52;13.05;;;8.68;;
10851;SDS011;5479;52.046;6.314;2023-07-13T11:11:35;10.68;;;7.40;;
10851;SDS011;5479;52.046;6.314;2023-07-13T11:14:25;12.18;;;8.73;;
10851;SDS011;5479;52.046;6.314;2023-07-13T11:17:33;11.30;;;8.25;;
10851;SDS011;5479;52.046;6.314;2023-07-13T11:20:19;12.68;;;8.80;;
10851;SDS011;5479;52.046;6.314;2023-07-13T11:22:51;10.75;;;8.88;;
10851;SDS011;5479;52.046;6.314;2023-07-13T11:25:25;12.85;;;8.50;;
10851;SDS011;5479;52.046;6.314;2023-07-13T11:28:15;12.02;;;7.63;;
10851;SDS011;5479;52.046;6.314;2023-07-13T11:30:49;8.98;;;7.32;;
10851;SDS011;5479;52.046;6.314;2023-07-13T11:33:43;9.43;;;5.55;;
10851;SDS011;5479;52.046;6.314;2023-07-13T11:36:18;7.75;;;5.90;;
10851;SDS011;5479;52.046;6.314;2023-07-13T11:38:51;9.50;;;5.65;;
10851;SDS011;5479;52.046;6.314;2023-07-13T11:41:31;9.38;;;6.43;;
10851;SDS011;5479;52.046;6.314;2023-07-13T11:44:05;8.40;;;6.25;;
10851;SDS011;5479;52.046;6.314;2023-07-13T11:46:38;9.23;;;6.50;;
10851;SDS011;5479;52.046;6.314;2023-07-13T11:49:06;9.63;;;6.97;;
10851;SDS011;5479;52.046;6.314;2023-07-13T11:51:35;10.73;;;6.03;;
10851;SDS011;5479;52.046;6.314;2023-07-13T11:54:05;9.50;;;6.22;;
10851;SDS011;5479;52.046;6.314;2023-07-13T11:56:44;9.20;;;5.75;;
10851;SDS011;5479;52.046;6.314;2023-07-13T11:59:13;10.30;;;6.32;;
10851;SDS011;5479;52.046;6.314;2023-07-13T12:01:42;19.42;;;7.55;;
10851;SDS011;5479;52.046;6.314;2023-07-13T12:04:19;16.73;;;11.43;;
10851;SDS011;5479;52.046;6.314;2023-07-13T12:06:57;18.20;;;11.75;;
10851;SDS011;5479;52.046;6.314;2023-07-13T12:09:31;14.35;;;10.10;;
10851;SDS011;5479;52.046;6.314;2023-07-13T12:12:08;11.77;;;9.95;;
10851;SDS011;5479;52.046;6.314;2023-07-13T12:14:39;14.15;;;12.13;;
10851;SDS011;5479;52.046;6.314;2023-07-13T12:17:16;14.20;;;12.68;;
10851;SDS011;5479;52.046;6.314;2023-07-13T12:19:46;15.85;;;12.77;;
10851;SDS011;5479;52.046;6.314;2023-07-13T12:22:15;14.88;;;11.45;;
10851;SDS011;5479;52.046;6.314;2023-07-13T12:24:46;10.40;;;7.18;;
10851;SDS011;5479;52.046;6.314;2023-07-13T12:27:19;8.52;;;5.85;;
10851;SDS011;5479;52.046;6.314;2023-07-13T12:29:52;9.52;;;5.82;;
10851;SDS011;5479;52.046;6.314;2023-07-13T12:32:25;8.02;;;5.90;;
10851;SDS011;5479;52.046;6.314;2023-07-13T12:34:57;9.50;;;5.93;;
10851;SDS011;5479;52.046;6.314;2023-07-13T12:37:41;10.00;;;6.28;;
10851;SDS011;5479;52.046;6.314;2023-07-13T12:40:12;9.20;;;6.53;;
10851;SDS011;5479;52.046;6.314;2023-07-13T12:42:46;10.45;;;6.63;;
10851;SDS011;5479;52.046;6.314;2023-07-13T12:45:22;10.18;;;6.60;;
10851;SDS011;5479;52.046;6.314;2023-07-13T12:47:55;9.90;;;6.53;;
10851;SDS011;5479;52.046;6.314;2023-07-13T12:50:29;9.02;;;6.43;;
10851;SDS011;5479;52.046;6.314;2023-07-13T12:53:05;8.05;;;5.85;;
10851;SDS011;5479;52.046;6.314;2023-07-13T12:55:41;8.15;;;6.40;;
10851;SDS011;5479;52.046;6.314;2023-07-13T12:58:16;11.05;;;7.53;;
10851;SDS011;5479;52.046;6.314;2023-07-13T13:00:50;10.23;;;6.45;;
10851;SDS011;5479;52.046;6.314;2023-07-13T13:03:22;8.82;;;6.07;;
10851;SDS011;5479;52.046;6.314;2023-07-13T13:05:57;9.95;;;6.63;;
10851;SDS011;5479;52.046;6.314;2023-07-13T13:08:29;5.97;;;4.22;;
10851;SDS011;5479;52.046;6.314;2023-07-13T13:10:58;10.02;;;4.30;;
10851;SDS011;5479;52.046;6.314;2023-07-13T13:13:32;8.88;;;4.60;;
10851;SDS011;5479;52.046;6.314;2023-07-13T13:16:01;7.60;;;4.10;;
10851;SDS011;5479;52.046;6.314;2023-07-13T13:18:32;9.23;;;4.60;;
10851;SDS011;5479;52.046;6.314;2023-07-13T13:21:02;8.83;;;5.30;;
10851;SDS011;5479;52.046;6.314;2023-07-13T13:23:30;9.53;;;5.13;;
10851;SDS011;5479;52.046;6.314;2023-07-13T13:25:59;9.40;;;5.50;;
10851;SDS011;5479;52.046;6.314;2023-07-13T13:28:26;9.87;;;5.23;;
10851;SDS011;5479;52.046;6.314;2023-07-13T13:30:55;9.50;;;5.93;;
10851;SDS011;5479;52.046;6.314;2023-07-13T13:33:23;9.70;;;5.67;;
10851;SDS011;5479;52.046;6.314;2023-07-13T13:35:52;8.20;;;5.07;;
10851;SDS011;5479;52.046;6.314;2023-07-13T13:38:21;8.97;;;5.90;;
10851;SDS011;5479;52.046;6.314;2023-07-13T13:40:54;8.60;;;5.57;;
10851;SDS011;5479;52.046;6.314;2023-07-13T13:43:22;8.47;;;5.97;;
10851;SDS011;5479;52.046;6.314;2023-07-13T13:45:57;8.73;;;5.53;;
10851;SDS011;5479;52.046;6.314;2023-07-13T13:48:29;7.77;;;5.37;;
10851;SDS011;5479;52.046;6.314;2023-07-13T13:51:06;8.02;;;5.03;;
10851;SDS011;5479;52.046;6.314;2023-07-13T13:53:51;8.27;;;4.63;;
10851;SDS011;5479;52.046;6.314;2023-07-13T13:56:20;9.85;;;4.75;;
10851;SDS011;5479;52.046;6.314;2023-07-13T13:59:00;9.48;;;5.20;;
10851;SDS011;5479;52.046;6.314;2023-07-13T14:01:41;6.60;;;4.88;;
10851;SDS011;5479;52.046;6.314;2023-07-13T14:04:23;6.43;;;4.55;;
10851;SDS011;5479;52.046;6.314;2023-07-13T14:06:52;6.90;;;4.90;;
10851;SDS011;5479;52.046;6.314;2023-07-13T14:09:22;7.35;;;5.10;;
10851;SDS011;5479;52.046;6.314;2023-07-13T14:11:53;8.40;;;5.55;;
10851;SDS011;5479;52.046;6.314;2023-07-13T14:14:22;8.32;;;5.68;;
10851;SDS011;5479;52.046;6.314;2023-07-13T14:16:58;9.63;;;6.50;;
10851;SDS011;5479;52.046;6.314;2023-07-13T14:19:26;8.10;;;5.47;;
10851;SDS011;5479;52.046;6.314;2023-07-13T14:21:56;7.20;;;5.15;;
10851;SDS011;5479;52.046;6.314;2023-07-13T14:24:25;9.38;;;5.20;;
10851;SDS011;5479;52.046;6.314;2023-07-13T14:26:54;9.40;;;5.72;;
10851;SDS011;5479;52.046;6.314;2023-07-13T14:29:24;9.32;;;5.78;;
10851;SDS011;5479;52.046;6.314;2023-07-13T14:31:52;8.48;;;5.00;;
10851;SDS011;5479;52.046;6.314;2023-07-13T14:34:24;8.48;;;4.53;;
10851;SDS011;5479;52.046;6.314;2023-07-13T14:36:51;8.80;;;4.50;;
10851;SDS011;5479;52.046;6.314;2023-07-13T14:39:22;8.90;;;5.05;;
10851;SDS011;5479;52.046;6.314;2023-07-13T14:41:53;7.75;;;5.03;;
10851;SDS011;5479;52.046;6.314;2023-07-13T14:44:26;8.75;;;4.60;;
10851;SDS011;5479;52.046;6.314;2023-07-13T14:46:58;7.68;;;4.80;;
10851;SDS011;5479;52.046;6.314;2023-07-13T14:49:32;8.45;;;5.13;;
10851;SDS011;5479;52.046;6.314;2023-07-13T14:52:03;8.60;;;4.75;;
10851;SDS011;5479;52.046;6.314;2023-07-13T14:54:37;8.93;;;4.80;;
10851;SDS011;5479;52.046;6.314;2023-07-13T14:57:09;7.63;;;4.75;;
10851;SDS011;5479;52.046;6.314;2023-07-13T14:59:40;6.95;;;4.70;;
10851;SDS011;5479;52.046;6.314;2023-07-13T15:02:21;9.80;;;4.90;;
10851;SDS011;5479;52.046;6.314;2023-07-13T15:04:54;8.02;;;5.07;;
10851;SDS011;5479;52.046;6.314;2023-07-13T15:07:31;8.57;;;4.85;;
10851;SDS011;5479;52.046;6.314;2023-07-13T15:10:14;7.32;;;4.68;;
10851;SDS011;5479;52.046;6.314;2023-07-13T15:12:44;7.35;;;4.70;;
10851;SDS011;5479;52.046;6.314;2023-07-13T15:15:12;8.63;;;4.47;;